Time;durP1;ratioP1;P1;durP2;ratioP2;P2;SDS_P1;SDS_P2;PMS_P1;PMS_P2;Temp;Humidity;BMP_temperature;BMP_pressure;BME280_temperature;BME280_humidity;BME280_pressure;Samples;Min_cycle;Max_cycle;Signal;HPM_P1;HPM_P2
2022/08/23 00:03:47;;;;;;;3.40;1.30;;;;;;;16.43;100.00;98432.41;15308487;19;20002;-79
2022/08/23 00:08:55;;;;;;;3.92;1.40;;;;;;;16.39;100.00;98428.41;15342169;19;20103;-79
2022/08/23 00:14:02;;;;;;;2.60;1.35;;;;;;;16.32;100.00;98429.19;15299847;19;20038;-80
2022/08/23 00:19:08;;;;;;;2.97;1.30;;;;;;;16.26;100.00;98423.72;15303728;19;20038;-81
2022/08/23 00:24:18;;;;;;;3.70;1.35;;;;;;;16.22;100.00;98425.16;15301217;19;20127;-81
2022/08/23 00:29:24;;;;;;;2.50;1.40;;;;;;;16.14;100.00;98421.53;15319602;19;20010;-80
2022/08/23 00:34:32;;;;;;;2.45;1.33;;;;;;;16.07;100.00;98422.50;15295987;19;20043;-81
2022/08/23 00:39:40;;;;;;;3.45;1.35;;;;;;;15.99;100.00;98420.81;15288904;19;20680;-80
2022/08/23 00:50:13;;;;;;;2.55;1.30;;;;;;;15.72;100.00;98421.34;15296348;19;20020;-79
2022/08/23 00:55:30;;;;;;;2.83;1.30;;;;;;;15.51;100.00;98415.94;15294230;19;20010;-80
2022/08/23 01:00:36;;;;;;;3.80;1.52;;;;;;;15.39;100.00;98418.34;15308576;19;20045;-80
2022/08/23 01:05:52;;;;;;;3.40;1.30;;;;;;;15.34;100.00;98416.19;15293018;19;20094;-80
2022/08/23 01:11:06;;;;;;;2.65;1.30;;;;;;;15.25;100.00;98425.47;15288874;19;20010;-80
2022/08/23 01:16:16;;;;;;;3.28;1.80;;;;;;;15.03;100.00;98420.00;15286164;19;20011;-80
2022/08/23 01:21:28;;;;;;;3.15;1.73;;;;;;;14.93;100.00;98430.31;15293971;19;20339;-80
2022/08/23 01:26:35;;;;;;;2.90;1.80;;;;;;;14.85;100.00;98430.44;15301487;19;20006;-81
2022/08/23 01:31:42;;;;;;;3.42;1.60;;;;;;;14.74;100.00;98437.16;15293631;19;20023;-80
2022/08/23 01:36:53;;;;;;;4.03;1.40;;;;;;;14.61;100.00;98445.94;15300784;19;20082;-80
2022/08/23 01:42:00;;;;;;;3.23;1.60;;;;;;;14.54;100.00;98444.97;15304116;19;20035;-81
2022/08/23 01:47:11;;;;;;;2.72;1.40;;;;;;;14.44;100.00;98456.09;15296891;19;20270;-80
2022/08/23 01:52:18;;;;;;;2.65;1.40;;;;;;;14.35;100.00;98454.50;15035834;19;5001202;-80
2022/08/23 01:57:27;;;;;;;3.75;1.50;;;;;;;14.23;100.00;98451.41;15295138;19;20078;-79
2022/08/23 02:02:32;;;;;;;1.92;1.23;;;;;;;14.16;100.00;98446.72;15297206;19;20011;-81
2022/08/23 02:07:36;;;;;;;3.35;1.50;;;;;;;14.06;100.00;98450.72;15285355;19;20015;-78
2022/08/23 02:12:46;;;;;;;3.30;1.55;;;;;;;13.97;100.00;98458.06;15279857;19;20014;-79
2022/08/23 02:17:53;;;;;;;2.28;1.50;;;;;;;13.87;100.00;98458.31;15283807;19;20010;-80
2022/08/23 02:22:58;;;;;;;2.45;1.40;;;;;;;13.82;100.00;98448.00;15276253;19;20727;-81
2022/08/23 02:28:06;;;;;;;2.90;1.60;;;;;;;13.76;100.00;98462.28;15285065;19;20014;-80
2022/08/23 02:33:11;;;;;;;2.95;1.30;;;;;;;13.68;100.00;98462.34;15286822;19;20750;-80
2022/08/23 02:38:17;;;;;;;3.97;1.40;;;;;;;13.63;100.00;98467.47;15289404;19;20095;-81
2022/08/23 02:43:24;;;;;;;3.13;1.33;;;;;;;13.53;100.00;98465.84;15287362;19;20015;-80
2022/08/23 02:48:31;;;;;;;3.78;1.40;;;;;;;13.44;100.00;98464.22;15296894;19;20517;-81
2022/08/23 02:53:41;;;;;;;;;;;;;;;13.41;100.00;98457.25;15278225;19;20014;-81
2022/08/23 02:58:49;;;;;;;2.15;1.38;;;;;;;13.33;100.00;98470.00;15286720;19;19986;-80
2022/08/23 03:04:03;;;;;;;2.10;1.35;;;;;;;13.28;100.00;98469.66;15285221;19;20021;-81
2022/08/23 03:09:10;;;;;;;3.17;1.63;;;;;;;13.21;100.00;98478.50;15288803;19;20548;-80
2022/08/23 03:14:18;;;;;;;3.97;1.80;;;;;;;13.13;100.00;98467.72;15288814;19;20014;-80
2022/08/23 03:19:23;;;;;;;2.92;1.85;;;;;;;13.06;100.00;98466.75;15287024;19;20026;-83
2022/08/23 03:24:28;;;;;;;2.80;1.65;;;;;;;13.01;100.00;98472.69;15332856;19;20048;-81
2022/08/23 03:29:36;;;;;;;3.00;1.70;;;;;;;13.02;100.00;98465.41;15290547;19;20021;-80
2022/08/23 03:34:40;;;;;;;2.53;1.60;;;;;;;12.99;100.00;98466.59;15287122;19;20584;-81
2022/08/23 03:39:46;;;;;;;2.55;1.60;;;;;;;12.95;100.00;98476.94;15296463;19;20356;-80
2022/08/23 03:44:54;;;;;;;2.88;1.60;;;;;;;12.91;100.00;98482.88;15301760;19;20017;-81
2022/08/23 03:50:07;;;;;;;2.60;1.60;;;;;;;12.80;100.00;98478.66;15301704;19;20038;-80
2022/08/23 03:55:14;;;;;;;3.25;1.40;;;;;;;12.75;100.00;98478.38;15313610;19;20014;-78
2022/08/23 04:00:24;;;;;;;3.20;1.50;;;;;;;12.77;100.00;98484.41;15310915;19;20457;-79
2022/08/23 04:05:30;;;;;;;2.05;1.50;;;;;;;12.78;100.00;98486.09;15291157;19;20031;-79
2022/08/23 04:10:40;;;;;;;3.25;1.42;;;;;;;12.78;100.00;98484.25;15281157;19;20025;-79
2022/08/23 04:15:48;;;;;;;6.50;1.48;;;;;;;12.83;100.00;98483.75;15288518;19;20034;-82
2022/08/23 04:20:54;;;;;;;3.13;1.40;;;;;;;12.86;100.00;98491.50;15295299;19;20233;-80
2022/08/23 04:25:59;;;;;;;2.88;1.35;;;;;;;12.81;100.00;98493.88;15301421;19;20051;-79
2022/08/23 04:31:10;;;;;;;2.13;1.30;;;;;;;12.76;100.00;98496.25;15307090;19;20014;-80
2022/08/23 04:36:18;;;;;;;3.93;1.60;;;;;;;12.54;100.00;98497.84;15316228;19;20022;-81
2022/08/23 04:46:47;;;;;;;4.32;1.58;;;;;;;12.12;100.00;98526.75;15299225;19;20018;-79
2022/08/23 04:51:54;;;;;;;2.65;1.60;;;;;;;12.06;100.00;98535.50;15293833;19;20054;-80
2022/08/23 04:57:00;;;;;;;5.95;1.95;;;;;;;12.04;100.00;98540.25;15291422;19;20015;-81
2022/08/23 05:02:07;;;;;;;3.78;1.75;;;;;;;12.09;100.00;98545.97;15285381;19;20051;-80
2022/08/23 05:07:14;;;;;;;2.90;1.70;;;;;;;12.12;100.00;98549.19;15289849;19;20010;-80
2022/08/23 05:12:19;;;;;;;2.15;1.45;;;;;;;12.17;100.00;98546.84;15286203;19;20058;-80
2022/08/23 05:17:29;;;;;;;5.30;1.80;;;;;;;12.21;100.00;98550.03;15288219;19;20018;-80
2022/08/23 05:22:34;;;;;;;3.65;2.25;;;;;;;12.24;100.00;98557.81;15284581;19;20018;-80
2022/08/23 05:27:57;;;;;;;3.35;1.70;;;;;;;12.28;100.00;98555.63;15286213;19;20018;-80
2022/08/23 05:33:04;;;;;;;2.20;1.60;;;;;;;12.33;100.00;98561.38;15287534;19;20087;-81
2022/08/23 05:38:10;;;;;;;3.42;1.80;;;;;;;12.41;100.00;98560.50;15292276;19;20047;-82
2022/08/23 05:43:16;;;;;;;4.20;1.85;;;;;;;12.50;100.00;98564.91;15303318;19;20021;-82
2022/08/23 05:48:25;;;;;;;4.70;1.98;;;;;;;12.61;100.00;98579.91;15284001;19;20010;-81
2022/08/23 05:53:34;;;;;;;5.00;2.20;;;;;;;12.72;100.00;98579.56;15281765;19;20010;-81
2022/08/23 05:58:38;;;;;;;7.20;2.20;;;;;;;12.85;100.00;98587.16;15282392;19;20074;-80
2022/08/23 06:03:47;;;;;;;4.18;2.10;;;;;;;12.98;100.00;98593.91;15281053;19;20015;-80
2022/08/23 06:08:51;;;;;;;3.80;2.30;;;;;;;13.12;100.00;98584.22;15276262;19;20019;-81
2022/08/23 06:13:58;;;;;;;4.32;2.10;;;;;;;13.26;100.00;98597.84;15281383;19;20013;-81
2022/08/23 06:19:10;;;;;;;4.75;2.05;;;;;;;13.43;100.00;98586.16;15300348;19;20014;-82
2022/08/23 06:24:24;;;;;;;3.97;2.15;;;;;;;13.58;100.00;98587.09;15291161;19;20990;-82
2022/08/23 06:29:39;;;;;;;3.85;2.03;;;;;;;13.77;100.00;98587.69;15307346;19;20046;-80
2022/08/23 06:35:06;;;;;;;5.82;1.90;;;;;;;13.94;100.00;98594.69;15329823;19;20011;-82
2022/08/23 06:40:42;;;;;;;2.83;1.70;;;;;;;14.12;100.00;98585.41;15351951;19;20006;-82
2022/08/23 06:46:12;;;;;;;4.57;1.80;;;;;;;14.29;100.00;98586.13;15358325;19;20014;-82
2022/08/23 06:51:26;;;;;;;2.95;1.50;;;;;;;14.47;100.00;98588.53;15330321;19;20484;-82
2022/08/23 06:56:34;;;;;;;3.22;1.63;;;;;;;14.68;100.00;98596.03;15297884;19;20023;-82
2022/08/23 07:01:46;;;;;;;2.75;1.50;;;;;;;14.90;100.00;98588.88;15300795;19;21270;-83
2022/08/23 07:07:24;;;;;;;4.18;1.38;;;;;;;15.23;100.00;98591.22;15285407;19;20019;-84
2022/08/23 07:12:49;;;;;;;3.58;1.50;;;;;;;15.51;100.00;98592.41;15278309;19;20091;-82
2022/08/23 07:17:56;;;;;;;3.55;1.40;;;;;;;15.82;100.00;98594.03;15296839;19;20015;-82
2022/08/23 07:23:04;;;;;;;3.00;1.40;;;;;;;16.09;100.00;98592.53;15291399;19;20351;-83
2022/08/23 07:28:10;;;;;;;2.75;1.25;;;;;;;16.43;100.00;98588.25;15289657;19;20189;-83
2022/08/23 07:33:20;;;;;;;4.57;1.30;;;;;;;16.74;100.00;98586.22;15279254;19;20006;-84
2022/08/23 07:38:50;;;;;;;1.92;1.05;;;;;;;16.98;100.00;98595.81;15281919;19;20010;-84
2022/08/23 07:43:56;;;;;;;2.42;1.00;;;;;;;17.28;100.00;98594.75;15278038;19;20034;-82
2022/08/23 07:49:03;;;;;;;3.00;0.80;;;;;;;17.40;100.00;98599.41;15287450;19;20011;-83
2022/08/23 07:54:16;;;;;;;2.33;0.90;;;;;;;17.77;100.00;98591.00;15285548;19;20042;-82
2022/08/23 07:59:30;;;;;;;1.83;0.77;;;;;;;18.21;100.00;98597.06;15291057;19;20002;-82
2022/08/23 08:04:48;;;;;;;1.80;0.70;;;;;;;18.53;100.00;98604.63;15283772;19;20038;-81
2022/08/23 08:09:56;;;;;;;1.33;0.73;;;;;;;18.81;100.00;98606.31;15292411;19;20050;-82
2022/08/23 08:15:01;;;;;;;1.90;0.90;;;;;;;19.06;100.00;98601.94;15279740;19;20084;-82
2022/08/23 08:20:14;;;;;;;1.20;0.70;;;;;;;19.32;100.00;98605.69;15280193;19;20540;-81
2022/08/23 08:25:47;;;;;;;1.50;0.80;;;;;;;19.57;100.00;98613.19;15285337;19;20073;-82
2022/08/23 08:30:55;;;;;;;3.90;0.80;;;;;;;19.68;100.00;98604.31;15295556;19;20321;-83
2022/08/23 08:36:00;;;;;;;2.75;0.77;;;;;;;19.80;100.00;98601.72;15291595;19;20726;-83
2022/08/23 08:41:18;;;;;;;1.30;0.70;;;;;;;19.89;100.00;98606.97;15291767;19;20010;-83
2022/08/23 08:46:28;;;;;;;1.33;0.80;;;;;;;20.00;100.00;98601.66;15284888;19;20007;-82
2022/08/23 08:51:44;;;;;;;1.75;0.90;;;;;;;20.17;100.00;98601.13;15285709;19;20017;-83
2022/08/23 08:56:56;;;;;;;2.25;0.90;;;;;;;20.31;100.00;98601.91;15286756;19;20356;-84
2022/08/23 09:02:02;;;;;;;1.20;0.70;;;;;;;20.48;100.00;98605.78;15288447;19;20381;-84
2022/08/23 09:07:25;;;;;;;0.80;0.50;;;;;;;20.77;100.00;98608.13;15295794;19;20015;-83
2022/08/23 09:12:50;;;;;;;3.55;0.88;;;;;;;20.94;100.00;98606.50;15285674;19;20017;-84
2022/08/23 09:17:58;;;;;;;3.55;0.85;;;;;;;21.06;100.00;98603.84;15289167;19;20479;-84
2022/08/23 09:23:10;;;;;;;2.20;0.90;;;;;;;21.07;100.00;98599.25;15281097;19;20010;-84
2022/08/23 09:28:19;;;;;;;2.05;0.90;;;;;;;21.19;100.00;98602.06;15288510;19;20015;-84
2022/08/23 09:33:40;;;;;;;1.98;0.85;;;;;;;21.30;100.00;98603.22;15288443;19;20014;-86
2022/08/23 09:38:56;;;;;;;2.30;0.90;;;;;;;21.48;100.00;98600.47;15285881;19;20007;-84
2022/08/23 09:44:33;;;;;;;2.22;0.80;;;;;;;21.65;100.00;98599.91;15333986;19;20022;-90
2022/08/23 09:49:43;;;;;;;1.63;0.73;;;;;;;21.72;100.00;98597.91;15317110;19;20020;-83
2022/08/23 09:54:57;;;;;;;2.72;0.90;;;;;;;21.84;100.00;98592.50;15279247;19;20022;-84
2022/08/23 10:00:19;;;;;;;2.45;0.75;;;;;;;21.95;100.00;98596.38;15291071;19;20007;-84
2022/08/23 10:05:41;;;;;;;1.70;0.90;;;;;;;22.06;100.00;98587.34;15279937;19;20010;-84
2022/08/23 10:10:56;;;;;;;1.67;0.70;;;;;;;22.01;100.00;98585.31;15281293;19;20168;-84
2022/08/23 10:16:18;;;;;;;1.20;0.80;;;;;;;22.15;100.00;98580.47;15275020;19;20021;-84
2022/08/23 10:21:41;;;;;;;2.15;0.80;;;;;;;22.37;100.00;98579.09;15283548;19;20017;-85
2022/08/23 10:32:38;;;;;;;1.40;0.50;;;;;;;22.55;100.00;98586.47;15279617;19;20014;-84
2022/08/23 10:37:57;;;;;;;1.98;0.82;;;;;;;22.84;100.00;98579.22;15283440;19;20334;-83
2022/08/23 10:43:15;;;;;;;1.55;0.70;;;;;;;23.22;100.00;98571.63;15278650;19;20242;-84
2022/08/23 10:48:27;;;;;;;1.40;0.70;;;;;;;23.48;100.00;98561.16;15292002;19;20397;-84
2022/08/23 10:53:45;;;;;;;1.02;0.63;;;;;;;23.50;100.00;98554.38;15299780;19;20014;-86
2022/08/23 10:58:53;;;;;;;1.75;0.70;;;;;;;23.60;100.00;98553.72;15304983;19;20038;-83
2022/08/23 11:04:04;;;;;;;1.38;0.60;;;;;;;23.66;100.00;98566.50;15304705;19;20014;-82
2022/08/23 11:09:50;;;;;;;3.78;0.70;;;;;;;23.42;100.00;98556.66;15307863;19;20032;-81
2022/08/23 11:15:12;;;;;;;0.90;0.60;;;;;;;23.35;100.00;98552.09;15298831;19;20054;-84
2022/08/23 11:20:51;;;;;;;1.60;0.70;;;;;;;23.38;100.00;98559.88;15298741;19;20025;-85
2022/08/23 11:26:12;;;;;;;1.40;0.80;;;;;;;23.44;100.00;98560.00;15299346;19;20086;-86
2022/08/23 11:31:25;;;;;;;1.58;0.55;;;;;;;23.70;100.00;98559.44;15302648;19;20011;-86
2022/08/23 11:36:32;;;;;;;4.18;0.73;;;;;;;23.90;100.00;98557.31;15301369;19;20014;-83
2022/08/23 11:42:03;;;;;;;0.93;0.50;;;;;;;24.26;100.00;98556.13;15298353;19;20018;-84
2022/08/23 11:47:12;;;;;;;2.17;0.55;;;;;;;24.20;100.00;98556.28;15296898;19;20384;-83
2022/08/23 11:52:47;;;;;;;2.58;0.70;;;;;;;24.34;100.00;98543.03;15291316;19;20017;-82
2022/08/23 11:58:24;;;;;;;1.77;0.70;;;;;;;24.66;97.58;98561.75;15298915;19;20015;-82
2022/08/23 12:03:33;;;;;;;1.55;0.60;;;;;;;24.74;94.64;98550.34;15304776;19;20042;-82
2022/08/23 12:08:55;;;;;;;2.55;0.70;;;;;;;24.56;100.00;98557.72;15304052;19;20380;-83
2022/08/23 12:14:37;;;;;;;1.92;0.70;;;;;;;24.45;100.00;98554.00;15300402;19;20034;-81
2022/08/23 12:19:47;;;;;;;3.17;0.60;;;;;;;24.79;100.00;98541.34;15304060;19;20014;-83
2022/08/23 12:24:57;;;;;;;3.05;0.60;;;;;;;25.15;98.88;98545.44;15296804;19;20019;-83
2022/08/23 12:30:10;;;;;;;1.75;0.60;;;;;;;25.49;88.90;98548.13;15302962;19;20500;-81
2022/08/23 12:35:31;;;;;;;3.47;0.80;;;;;;;25.61;87.93;98544.41;15290134;19;20030;-81
2022/08/23 12:40:39;;;;;;;3.25;0.70;;;;;;;25.49;95.27;98548.13;15302874;19;20014;-83
2022/08/23 12:45:53;;;;;;;3.00;0.90;;;;;;;25.23;94.59;98552.44;15300935;19;20010;-82
2022/08/23 12:51:00;;;;;;;2.63;0.65;;;;;;;25.29;97.34;98553.34;14939929;19;5011590;-81
2022/08/23 12:56:08;;;;;;;2.83;0.57;;;;;;;25.57;88.43;98554.31;15303737;19;20388;-82
2022/08/23 13:01:24;;;;;;;2.25;0.80;;;;;;;26.02;87.77;98546.81;15349224;19;20050;-84
2022/08/23 13:06:40;;;;;;;1.45;0.93;;;;;;;26.38;84.17;98550.81;15300725;19;20023;-83
2022/08/23 13:11:47;;;;;;;1.48;0.70;;;;;;;26.46;82.97;98542.03;15297008;19;20006;-82
2022/08/23 13:16:57;;;;;;;3.78;0.70;;;;;;;26.35;80.77;98534.75;15299868;19;20527;-82
2022/08/23 13:22:13;;;;;;;1.63;0.70;;;;;;;26.83;75.96;98528.53;15296905;19;20035;-81
2022/08/23 13:27:22;;;;;;;2.67;0.63;;;;;;;27.29;75.18;98528.81;15298234;19;20345;-82
2022/08/23 13:32:36;;;;;;;1.83;0.60;;;;;;;27.02;68.68;98537.22;15292136;19;20011;-81
2022/08/23 13:37:46;;;;;;;1.27;0.70;;;;;;;26.68;71.63;98543.03;15292965;19;20021;-81
2022/08/23 13:42:54;;;;;;;2.23;0.53;;;;;;;26.58;74.05;98536.31;15296279;19;20471;-83
2022/08/23 13:48:10;;;;;;;3.35;0.70;;;;;;;27.03;70.90;98539.72;15293687;19;20279;-83
2022/08/23 13:53:16;;;;;;;3.63;0.70;;;;;;;27.45;67.03;98532.50;15287656;19;20011;-81
2022/08/23 13:58:29;;;;;;;2.90;0.70;;;;;;;27.81;61.34;98529.06;15292494;19;20120;-79
2022/08/23 14:03:37;;;;;;;1.60;0.80;;;;;;;28.10;63.12;98517.50;15284573;19;20022;-80
2022/08/23 14:08:42;;;;;;;1.58;0.70;;;;;;;28.21;62.39;98516.41;15286211;19;20019;-81
2022/08/23 14:13:50;;;;;;;2.20;0.73;;;;;;;28.27;62.19;98528.34;15287014;19;20629;-79
2022/08/23 14:18:57;;;;;;;2.67;0.65;;;;;;;28.24;61.15;98523.34;15289823;19;20042;-79
2022/08/23 14:24:23;;;;;;;3.70;0.60;;;;;;;28.14;62.35;98518.63;15287767;19;20031;-80
2022/08/23 14:29:30;;;;;;;3.50;0.80;;;;;;;28.33;61.28;98520.84;15298879;19;20014;-84
2022/08/23 14:34:37;;;;;;;0.85;0.60;;;;;;;28.40;58.10;98533.34;15289116;19;20014;-82
2022/08/23 14:39:42;;;;;;;1.45;0.50;;;;;;;27.83;61.42;98524.06;15321400;19;20010;-84
2022/08/23 14:44:47;;;;;;;1.35;0.60;;;;;;;27.69;61.05;98516.25;15349632;19;20013;-85
2022/08/23 14:50:06;;;;;;;1.23;0.60;;;;;;;28.21;59.59;98508.09;15360412;19;20052;-83
2022/08/23 14:55:12;;;;;;;3.97;0.70;;;;;;;28.75;58.79;98511.47;15364134;19;20022;-83
2022/08/23 15:00:19;;;;;;;1.13;0.40;;;;;;;29.31;57.48;98512.44;15362706;19;19999;-82
2022/08/23 15:05:42;;;;;;;1.17;0.60;;;;;;;29.66;53.83;98505.94;15357714;19;20177;-81
2022/08/23 15:10:58;;;;;;;2.88;0.68;;;;;;;29.97;53.57;98504.97;15370634;19;20013;-82
2022/08/23 15:16:24;;;;;;;0.93;0.60;;;;;;;29.13;54.75;98509.16;15361032;19;20066;-81
2022/08/23 15:21:35;;;;;;;1.23;0.50;;;;;;;28.83;55.00;98502.59;15353977;19;20606;-81
2022/08/23 15:26:40;;;;;;;1.65;0.70;;;;;;;28.88;54.68;98499.78;15322009;19;20153;-81
2022/08/23 15:31:49;;;;;;;2.20;0.70;;;;;;;29.29;54.94;98506.34;15313281;19;20006;-80
2022/08/23 15:36:57;;;;;;;4.10;0.70;;;;;;;29.72;53.59;98506.75;15326409;19;20018;-81
2022/08/23 15:42:02;;;;;;;3.35;0.73;;;;;;;29.92;52.95;98511.34;15318196;19;20025;-81
2022/08/23 15:47:19;;;;;;;1.23;0.60;;;;;;;29.51;49.59;98500.47;15319006;19;20021;-82
2022/08/23 15:52:27;;;;;;;1.52;0.70;;;;;;;29.27;52.48;98505.78;15316743;19;20018;-81
2022/08/23 15:57:40;;;;;;;3.72;0.70;;;;;;;29.77;51.12;98503.09;15335913;19;20039;-81
2022/08/23 16:02:45;;;;;;;2.05;0.73;;;;;;;29.77;51.17;98500.31;15333168;19;20014;-81
2022/08/23 16:08:17;;;;;;;2.03;0.98;;;;;;;29.32;50.86;98503.00;15341208;19;20372;-83
2022/08/23 16:13:23;;;;;;;2.83;0.70;;;;;;;28.99;51.76;98500.59;15321009;19;20035;-83
2022/08/23 16:18:33;;;;;;;3.30;0.55;;;;;;;28.89;52.34;98501.44;15343487;19;20010;-83
2022/08/23 16:23:41;;;;;;;1.67;0.73;;;;;;;29.33;52.89;98496.34;15358764;19;20042;-83
2022/08/23 16:28:48;;;;;;;1.35;0.60;;;;;;;29.33;50.11;98504.69;15335534;19;20078;-83
2022/08/23 16:33:53;;;;;;;1.85;0.60;;;;;;;29.19;50.69;98513.59;15312364;19;20007;-82
2022/08/23 16:39:01;;;;;;;2.10;0.70;;;;;;;29.24;49.96;98511.91;14806828;19;10000680;-82
2022/08/23 16:44:06;;;;;;;1.80;0.63;;;;;;;29.41;52.17;98504.13;15314342;19;20025;-82
2022/08/23 16:49:12;;;;;;;1.90;0.70;;;;;;;29.46;53.50;98508.81;15323303;19;20019;-82
2022/08/23 16:54:20;;;;;;;3.22;0.80;;;;;;;29.63;53.04;98503.75;15308460;19;20039;-83
2022/08/23 16:59:25;;;;;;;4.28;0.80;;;;;;;29.59;53.29;98496.25;15308166;19;20010;-85
2022/08/23 17:04:33;;;;;;;2.25;0.70;;;;;;;29.54;54.02;98502.66;15351378;19;20002;-85
2022/08/23 17:09:56;;;;;;;;;;;;;;;29.49;53.31;98508.25;15368955;19;20011;-83
2022/08/23 17:20:49;;;;;;;3.63;0.70;;;;;;;29.02;55.74;98507.53;15311924;19;19978;-86
2022/08/23 17:25:56;;;;;;;3.97;0.70;;;;;;;28.77;56.64;98509.22;15285539;19;20007;-78
2022/08/23 17:31:03;;;;;;;3.22;0.68;;;;;;;28.52;57.78;98512.84;15302672;19;20487;-82
2022/08/23 17:36:27;;;;;;;2.67;0.70;;;;;;;28.07;59.19;98518.03;15324318;19;20022;-80
2022/08/23 17:41:34;;;;;;;1.98;0.82;;;;;;;27.65;60.76;98528.16;15330436;19;20042;-78
2022/08/23 17:46:41;;;;;;;3.47;0.80;;;;;;;27.27;63.20;98536.53;15285723;19;21008;-77
2022/08/23 17:51:47;;;;;;;2.97;0.60;;;;;;;27.07;65.39;98535.31;15296404;19;20375;-79
2022/08/23 17:56:54;;;;;;;1.20;0.68;;;;;;;26.66;68.75;98546.03;15286913;19;20022;-77
2022/08/23 18:02:01;;;;;;;2.10;0.80;;;;;;;26.42;71.28;98545.59;15307051;19;20375;-77
2022/08/23 18:07:06;;;;;;;1.77;0.70;;;;;;;26.06;75.40;98550.72;15313130;19;20030;-75
2022/08/23 18:12:14;;;;;;;2.17;0.70;;;;;;;25.73;80.83;98556.16;15299731;19;20014;-76
2022/08/23 18:17:19;;;;;;;2.58;0.80;;;;;;;25.31;87.59;98565.78;15294947;19;20031;-79
2022/08/23 18:22:24;;;;;;;2.88;1.00;;;;;;;25.00;91.99;98576.38;15294548;19;20022;-79
2022/08/23 18:32:49;;;;;;;1.63;0.80;;;;;;;24.42;99.35;98597.69;15286580;19;20011;-78
2022/08/23 18:37:54;;;;;;;1.67;0.73;;;;;;;24.03;100.00;98605.78;15285713;19;20007;-79
2022/08/23 18:43:01;;;;;;;3.03;0.80;;;;;;;23.69;100.00;98596.28;15301105;19;20261;-77
2022/08/23 18:48:06;;;;;;;1.00;0.75;;;;;;;23.35;100.00;98593.34;15294845;19;20022;-79
2022/08/23 18:53:12;;;;;;;2.30;0.90;;;;;;;23.17;100.00;98605.25;15300954;19;20017;-80
2022/08/23 18:58:21;;;;;;;1.65;0.80;;;;;;;22.77;100.00;98617.78;15277640;19;20034;-77
2022/08/23 19:03:31;;;;;;;1.33;0.70;;;;;;;22.49;100.00;98620.34;15333216;19;20289;-76
2022/08/23 19:08:36;;;;;;;3.63;0.93;;;;;;;22.30;100.00;98623.97;15312442;19;20045;-79
2022/08/23 19:13:43;;;;;;;3.42;0.80;;;;;;;22.15;100.00;98632.63;15292460;19;20034;-84
2022/08/23 19:18:49;;;;;;;1.27;0.80;;;;;;;21.92;100.00;98635.25;15289503;19;20022;-79
2022/08/23 19:23:57;;;;;;;2.15;0.90;;;;;;;21.81;100.00;98640.44;15289365;19;20081;-80
2022/08/23 19:29:08;;;;;;;2.78;0.90;;;;;;;21.69;100.00;98634.88;15315959;19;20369;-80
2022/08/23 19:34:13;;;;;;;1.63;0.70;;;;;;;21.60;100.00;98640.88;15290248;19;20015;-81
2022/08/23 19:39:20;;;;;;;1.42;0.82;;;;;;;21.48;100.00;98644.34;15282235;19;20018;-80
2022/08/23 19:44:27;;;;;;;2.08;1.00;;;;;;;21.22;100.00;98645.44;15284320;19;20015;-83
2022/08/23 19:49:34;;;;;;;1.95;1.10;;;;;;;21.02;100.00;98645.63;15284236;19;20258;-79
2022/08/23 19:54:39;;;;;;;1.38;0.80;;;;;;;20.91;100.00;98650.78;15286420;19;20009;-81
2022/08/23 19:59:47;;;;;;;5.03;1.00;;;;;;;20.84;100.00;98649.13;15276900;19;20011;-78
2022/08/23 20:04:52;;;;;;;3.97;1.00;;;;;;;20.75;100.00;98663.13;15277152;19;20010;-79
2022/08/23 20:09:57;;;;;;;1.77;0.80;;;;;;;20.69;100.00;98652.19;15281521;19;20038;-80
2022/08/23 20:15:04;;;;;;;3.63;0.93;;;;;;;20.61;100.00;98662.34;15286874;19;20471;-81
2022/08/23 20:20:12;;;;;;;4.40;0.90;;;;;;;20.49;100.00;98664.09;15292042;19;20034;-82
2022/08/23 20:25:17;;;;;;;2.03;0.80;;;;;;;20.29;100.00;98658.75;15300085;19;20010;-79
2022/08/23 20:30:24;;;;;;;2.72;1.00;;;;;;;20.12;100.00;98666.63;15294674;19;20023;-79
2022/08/23 20:35:29;;;;;;;1.73;0.90;;;;;;;19.98;100.00;98658.47;15281859;19;20011;-79
2022/08/23 20:40:34;;;;;;;1.88;1.00;;;;;;;19.82;100.00;98664.38;15269116;19;20010;-81
2022/08/23 20:45:41;;;;;;;3.00;0.85;;;;;;;19.59;100.00;98665.69;15295031;19;20041;-79
2022/08/23 20:50:50;;;;;;;1.55;0.88;;;;;;;19.46;100.00;98672.06;15287311;19;20017;-81
2022/08/23 20:55:55;;;;;;;2.80;0.98;;;;;;;19.32;100.00;98670.38;15290428;19;20034;-81
2022/08/23 21:01:03;;;;;;;2.03;0.80;;;;;;;19.16;100.00;98666.19;15292689;19;20002;-79
2022/08/23 21:06:18;;;;;;;2.13;1.10;;;;;;;18.98;100.00;98666.84;15295873;19;20011;-81
2022/08/23 21:11:27;;;;;;;3.05;1.25;;;;;;;18.95;100.00;98662.66;15300354;19;20696;-78
2022/08/23 21:16:35;;;;;;;4.90;1.08;;;;;;;18.93;100.00;98679.22;15297150;19;20032;-79
2022/08/23 21:21:41;;;;;;;4.07;1.13;;;;;;;18.89;100.00;98668.91;15299708;19;20050;-81
2022/08/23 21:26:45;;;;;;;4.07;1.00;;;;;;;18.77;100.00;98682.34;15301654;19;20026;-77
2022/08/23 21:31:53;;;;;;;2.50;1.00;;;;;;;18.72;100.00;98680.22;15295962;19;20018;-79
2022/08/23 21:36:58;;;;;;;2.83;0.90;;;;;;;18.67;100.00;98671.81;15294843;19;20020;-79
2022/08/23 21:42:02;;;;;;;2.35;0.98;;;;;;;18.64;100.00;98674.94;15294828;19;20006;-80
2022/08/23 21:47:31;;;;;;;1.77;0.90;;;;;;;18.60;100.00;98674.53;15305604;19;20038;-80
2022/08/23 21:52:35;;;;;;;2.40;1.10;;;;;;;18.43;100.00;98678.72;15347152;19;20087;-81
2022/08/23 21:57:42;;;;;;;2.25;0.90;;;;;;;18.29;100.00;98683.25;15294276;19;20017;-80
2022/08/23 22:02:50;;;;;;;2.35;0.90;;;;;;;18.22;100.00;98682.41;15285325;19;20413;-79
2022/08/23 22:07:56;;;;;;;3.13;1.10;;;;;;;18.13;100.00;98679.03;15283532;19;20018;-79
2022/08/23 22:13:00;;;;;;;3.35;1.00;;;;;;;18.10;100.00;98677.56;15290557;19;20420;-79
2022/08/23 22:18:08;;;;;;;2.42;1.10;;;;;;;18.13;100.00;98677.16;15289358;19;20021;-82
2022/08/23 22:23:13;;;;;;;4.72;0.93;;;;;;;18.10;100.00;98679.44;15286639;19;20019;-77
2022/08/23 22:28:18;;;;;;;2.85;0.90;;;;;;;18.07;100.00;98675.22;15292539;19;20019;-82
2022/08/23 22:33:26;;;;;;;2.88;0.98;;;;;;;18.04;100.00;98672.94;15292375;19;20739;-77
2022/08/23 22:38:32;;;;;;;3.10;1.30;;;;;;;17.99;100.00;98673.50;15288852;19;20018;-79
2022/08/23 22:43:37;;;;;;;1.90;1.00;;;;;;;17.86;100.00;98679.72;15284315;19;20010;-82
2022/08/23 22:48:44;;;;;;;2.83;1.00;;;;;;;17.74;100.00;98686.78;15284192;19;20006;-80
2022/08/23 22:53:51;;;;;;;2.70;1.10;;;;;;;17.59;100.00;98673.31;15290667;19;20372;-80
2022/08/23 22:58:56;;;;;;;2.10;1.00;;;;;;;17.53;100.00;98669.50;15286056;19;20538;-79
2022/08/23 23:04:06;;;;;;;2.78;1.05;;;;;;;17.52;100.00;98667.81;15289055;19;20015;-81
2022/08/23 23:09:15;;;;;;;3.83;1.00;;;;;;;17.40;100.00;98672.97;15290606;19;20023;-79
2022/08/23 23:14:21;;;;;;;3.22;1.10;;;;;;;17.31;100.00;98667.88;15286385;19;20018;-79
2022/08/23 23:24:49;;;;;;;2.92;1.20;;;;;;;16.88;100.00;98666.88;15283093;19;20015;-79
2022/08/23 23:29:54;;;;;;;3.55;1.20;;;;;;;16.81;100.00;98666.00;15289544;19;20417;-80
2022/08/23 23:35:01;;;;;;;2.20;1.20;;;;;;;16.75;100.00;98666.78;15287574;19;20022;-80
2022/08/23 23:40:08;;;;;;;2.40;1.10;;;;;;;16.72;100.00;98661.72;15294514;19;20024;-78
2022/08/23 23:45:13;;;;;;;3.00;1.30;;;;;;;16.60;100.00;98659.53;15287218;19;20010;-79
2022/08/23 23:50:20;;;;;;;4.68;1.70;;;;;;;16.58;100.00;98658.06;15273879;19;20023;-79
2022/08/23 23:55:25;;;;;;;5.22;1.50;;;;;;;16.51;100.00;98658.00;15283274;19;20034;-80
